Time;durP1;ratioP1;P1;durP2;ratioP2;P2;SDS_P1;SDS_P2;PMS_P1;PMS_P2;Temp;Humidity;BMP_temperature;BMP_pressure;BME280_temperature;BME280_humidity;BME280_pressure;Samples;Min_cycle;Max_cycle;Signal;HPM_P1;HPM_P2
2022/11/22 00:00:42;;;;;;;11.57;4.25;;;;;;;7.84;97.20;99173.69;5061777;28;20103;-53
2022/11/22 00:03:07;;;;;;;6.68;3.88;;;;;;;7.84;97.17;99175.41;5065465;28;20044;-50
2022/11/22 00:05:33;;;;;;;11.60;4.63;;;;;;;7.84;97.31;99175.41;5065211;28;20036;-49
2022/11/22 00:07:58;;;;;;;13.18;4.25;;;;;;;7.85;97.16;99180.53;5070645;28;20058;-47
2022/11/22 00:10:24;;;;;;;8.57;3.92;;;;;;;7.88;97.32;99177.13;5070403;28;20412;-49
2022/11/22 00:12:49;;;;;;;9.93;4.00;;;;;;;7.87;97.22;99166.03;5071457;28;20399;-47
2022/11/22 00:15:15;;;;;;;9.20;4.07;;;;;;;7.86;97.34;99164.31;5070964;28;20437;-46
2022/11/22 00:17:40;;;;;;;9.00;3.90;;;;;;;7.91;97.45;99172.06;5071444;28;20032;-50
2022/11/22 00:20:07;;;;;;;9.90;3.90;;;;;;;7.87;97.67;99168.59;5071205;28;20443;-49
2022/11/22 00:22:33;;;;;;;9.43;3.90;;;;;;;7.88;97.37;99174.56;5072372;28;20029;-48
2022/11/22 00:24:58;;;;;;;8.38;3.67;;;;;;;7.90;97.42;99168.66;5071884;28;20039;-49
2022/11/22 00:27:24;;;;;;;8.52;3.63;;;;;;;7.92;97.27;99184.00;5069267;28;20393;-50
2022/11/22 00:29:49;;;;;;;8.05;3.70;;;;;;;7.94;97.48;99177.19;5071834;28;20179;-51
2022/11/22 00:32:15;;;;;;;9.40;3.70;;;;;;;7.93;97.46;99166.09;5065740;28;20037;-49
2022/11/22 00:34:40;;;;;;;6.43;3.28;;;;;;;7.91;97.60;99162.69;5064053;28;20063;-46
2022/11/22 00:37:05;;;;;;;6.95;3.50;;;;;;;7.94;97.47;99164.41;5061925;28;20024;-46
2022/11/22 00:39:31;;;;;;;10.38;3.40;;;;;;;7.93;97.20;99160.13;5062185;28;20036;-49
2022/11/22 00:41:56;;;;;;;8.23;3.10;;;;;;;7.95;97.17;99164.44;5065973;28;20038;-48
2022/11/22 00:44:21;;;;;;;9.77;3.13;;;;;;;7.95;97.08;99169.56;5062469;28;20406;-48
2022/11/22 00:46:47;;;;;;;12.07;3.10;;;;;;;7.93;97.05;99173.78;5063316;28;20059;-48
2022/11/22 00:49:12;;;;;;;8.60;2.95;;;;;;;7.93;97.06;99168.66;5061548;28;20053;-45
2022/11/22 00:51:38;;;;;;;11.27;3.13;;;;;;;7.94;97.04;99170.38;5064532;28;20039;-46
2022/11/22 00:54:03;;;;;;;9.35;3.08;;;;;;;7.93;97.25;99171.22;5064112;28;20465;-48
2022/11/22 00:56:30;;;;;;;10.77;3.08;;;;;;;7.92;97.21;99172.06;5066532;28;20428;-48
2022/11/22 00:58:56;;;;;;;9.82;2.95;;;;;;;7.92;97.38;99172.06;5064016;28;20052;-48
2022/11/22 01:01:21;;;;;;;9.73;3.13;;;;;;;7.92;97.45;99171.22;5066226;28;20508;-48
2022/11/22 01:03:46;;;;;;;9.00;3.15;;;;;;;7.94;97.13;99169.53;5065309;28;20124;-48
2022/11/22 01:06:12;;;;;;;8.80;2.88;;;;;;;7.92;96.83;99171.22;5062639;28;20123;-49
2022/11/22 01:08:37;;;;;;;12.82;2.95;;;;;;;7.90;96.82;99165.22;5065544;28;20037;-48
2022/11/22 01:11:02;;;;;;;8.27;2.85;;;;;;;7.93;96.58;99157.56;5065390;28;20132;-49
2022/11/22 01:13:28;;;;;;;6.32;2.70;;;;;;;7.90;96.36;99153.28;5064277;28;20062;-47
2022/11/22 01:16:02;;;;;;;10.27;2.83;;;;;;;7.90;96.48;99166.09;5066478;28;20554;-51
2022/11/22 01:18:28;;;;;;;8.57;2.80;;;;;;;7.86;96.41;99168.59;5062721;28;20032;-49
2022/11/22 01:20:54;;;;;;;6.47;2.50;;;;;;;7.84;96.20;99167.72;5064859;28;20452;-48
2022/11/22 01:23:19;;;;;;;7.20;2.70;;;;;;;7.83;96.08;99171.97;5061562;28;20036;-50
2022/11/22 01:25:44;;;;;;;9.13;2.78;;;;;;;7.78;95.85;99177.03;5061706;28;20043;-49
2022/11/22 01:28:10;;;;;;;9.00;3.03;;;;;;;7.80;95.66;99185.56;5062267;28;20043;-49
2022/11/22 01:30:35;;;;;;;12.95;2.80;;;;;;;7.76;96.20;99183.81;5061699;28;20020;-50
2022/11/22 01:33:01;;;;;;;7.93;2.75;;;;;;;7.76;95.72;99171.00;5064529;28;20028;-49
2022/11/22 01:35:26;;;;;;;8.20;2.70;;;;;;;7.77;95.50;99174.47;5063400;28;20043;-50
2022/11/22 01:37:51;;;;;;;11.13;2.95;;;;;;;7.73;95.46;99173.56;5061192;28;20055;-49
2022/11/22 01:40:17;;;;;;;13.25;2.70;;;;;;;7.73;95.48;99178.66;5061076;28;20040;-48
2022/11/22 01:42:47;;;;;;;6.45;2.40;;;;;;;7.70;95.59;99177.75;5062422;28;20075;-45
2022/11/22 01:45:30;;;;;;;9.60;2.53;;;;;;;7.75;nan;99171.88;5055942;28;20040;-52
2022/11/22 01:48:11;;;;;;;8.50;2.22;;;;;;;7.69;95.52;99182.03;5060550;28;20040;-50
2022/11/22 01:50:39;;;;;;;12.52;2.60;;;;;;;7.67;95.04;99188.81;5063609;28;20115;-48
2022/11/22 01:53:10;;;;;;;8.73;2.28;;;;;;;7.64;95.27;99186.22;5063870;28;22132;-47
2022/11/22 01:55:36;;;;;;;10.10;2.47;;;;;;;7.61;95.04;99183.63;5062778;28;20807;-46
2022/11/22 01:58:02;;;;;;;10.55;2.65;;;;;;;7.63;94.62;99193.88;5062424;28;20020;-48
2022/11/22 02:00:27;;;;;;;10.75;2.45;;;;;;;7.62;94.96;99197.28;5062331;28;20033;-49
2022/11/22 02:02:56;;;;;;;8.07;2.55;;;;;;;7.63;94.64;99204.09;5064525;28;20119;-48
2022/11/22 02:05:26;;;;;;;12.05;2.30;;;;;;;7.62;94.49;99195.56;5063165;28;20043;-45
2022/11/22 02:07:54;;;;;;;;;;;;;;;7.78;94.20;99202.63;5065165;28;20029;-51
2022/11/22 02:10:22;;;;;;;11.75;2.42;;;;;;;7.65;94.09;99202.44;5064734;28;20353;-48
2022/11/22 02:12:50;;;;;;;11.65;2.40;;;;;;;7.63;94.21;99204.97;5065564;28;20032;-49
2022/11/22 02:15:15;;;;;;;11.73;2.30;;;;;;;7.60;93.95;99198.97;5061906;28;20032;-49
2022/11/22 02:17:40;;;;;;;10.88;2.45;;;;;;;7.59;93.76;99215.16;5065066;28;20035;-48
2022/11/22 02:20:07;;;;;;;14.18;2.30;;;;;;;7.56;93.98;99213.41;5064104;28;20047;-44
2022/11/22 02:22:35;;;;;;;9.77;2.50;;;;;;;7.57;93.97;99211.69;5063943;28;20519;-50
2022/11/22 02:25:04;;;;;;;13.13;2.47;;;;;;;7.59;93.64;99215.16;5062437;28;20032;-47
2022/11/22 02:27:29;;;;;;;9.68;2.25;;;;;;;7.55;93.39;99208.28;5061941;28;20461;-49
2022/11/22 02:29:55;;;;;;;12.10;2.47;;;;;;;7.52;93.57;99207.41;5060510;28;20032;-49
2022/11/22 02:32:20;;;;;;;19.33;2.83;;;;;;;7.55;93.46;99218.50;5061090;28;20036;-45
2022/11/22 02:34:48;;;;;;;15.70;3.17;;;;;;;7.52;93.56;99204.84;5061079;28;20030;-48
2022/11/22 02:37:18;;;;;;;16.25;2.95;;;;;;;7.52;93.29;99212.53;5062247;28;20013;-47
2022/11/22 02:39:46;;;;;;;15.13;2.55;;;;;;;7.47;93.26;99210.72;5062595;28;20031;-47
2022/11/22 02:42:12;;;;;;;18.38;2.70;;;;;;;7.45;93.27;99213.25;5059323;28;20047;-49
2022/11/22 02:44:40;;;;;;;17.88;2.53;;;;;;;7.48;93.31;99208.19;5060660;28;20767;-44
2022/11/22 02:47:05;;;;;;;9.30;1.92;;;;;;;7.45;92.87;99210.69;5059319;28;20412;-49
2022/11/22 02:49:30;;;;;;;13.50;2.70;;;;;;;7.44;92.96;99215.78;5064027;28;20033;-49
2022/11/22 02:51:56;;;;;;;14.10;2.15;;;;;;;7.41;92.87;99220.88;5059532;28;20040;-49
2022/11/22 02:54:21;;;;;;;14.23;2.20;;;;;;;7.41;92.54;99234.53;5067267;28;20028;-49
2022/11/22 02:56:46;;;;;;;13.20;2.17;;;;;;;7.38;92.94;99220.81;5067625;28;20455;-47
2022/11/22 02:59:12;;;;;;;13.23;2.03;;;;;;;7.39;92.80;99238.72;5068428;28;20029;-48
2022/11/22 03:01:38;;;;;;;11.93;1.90;;;;;;;7.37;92.68;99239.56;5067121;28;20032;-49
2022/11/22 03:04:03;;;;;;;14.55;2.30;;;;;;;7.37;92.33;99230.19;5066777;28;20031;-51
2022/11/22 03:06:28;;;;;;;14.48;2.45;;;;;;;7.37;92.10;99227.63;5067956;28;20072;-49
2022/11/22 03:08:54;;;;;;;13.45;2.40;;;;;;;7.37;91.67;99224.22;5067810;28;20039;-50
2022/11/22 03:11:19;;;;;;;16.27;2.30;;;;;;;7.33;91.80;99227.56;5066558;28;20052;-46
2022/11/22 03:13:44;;;;;;;14.55;2.60;;;;;;;7.33;91.49;99225.84;5067999;28;20064;-47
2022/11/22 03:16:10;;;;;;;13.02;2.20;;;;;;;7.31;91.85;99232.66;5067704;28;20028;-45
2022/11/22 03:18:35;;;;;;;12.48;2.70;;;;;;;7.30;91.40;99241.16;5067672;28;20033;-48
2022/11/22 03:21:07;;;;;;;16.27;2.42;;;;;;;7.34;91.34;99247.16;5063568;28;20421;-48
2022/11/22 03:23:32;;;;;;;11.48;2.28;;;;;;;7.30;90.97;99248.84;5062646;28;20028;-46
2022/11/22 03:25:58;;;;;;;15.07;2.25;;;;;;;7.28;90.57;99252.19;5059559;28;20059;-49
2022/11/22 03:28:25;;;;;;;12.70;2.10;;;;;;;7.29;91.01;99248.81;5058970;28;20040;-50
2022/11/22 03:30:50;;;;;;;10.18;2.22;;;;;;;7.26;90.44;99249.63;5060969;28;20047;-49
2022/11/22 03:33:15;;;;;;;12.70;2.13;;;;;;;7.28;90.24;99247.97;5062043;28;20032;-49
2022/11/22 03:35:41;;;;;;;18.20;2.63;;;;;;;7.25;90.17;99251.31;5064840;28;20040;-47
2022/11/22 03:38:06;;;;;;;16.60;2.50;;;;;;;7.22;90.19;99253.84;5062817;28;20042;-49
2022/11/22 03:40:32;;;;;;;14.70;2.10;;;;;;;7.19;90.00;99258.03;5063542;28;20150;-50
2022/11/22 03:43:00;;;;;;;12.32;2.72;;;;;;;7.15;89.96;99266.47;5061248;28;20369;-50
2022/11/22 03:45:25;;;;;;;16.63;2.30;;;;;;;7.17;89.79;99260.56;5065368;28;20496;-49
2022/11/22 03:47:51;;;;;;;13.75;2.13;;;;;;;7.13;89.82;99260.50;5059306;28;20076;-46
2022/11/22 03:50:16;;;;;;;18.10;2.53;;;;;;;7.12;89.47;99263.88;5059977;28;20119;-47
2022/11/22 03:52:41;;;;;;;14.43;2.30;;;;;;;7.16;89.34;99269.09;5062189;28;20064;-47
2022/11/22 03:55:07;;;;;;;11.25;2.20;;;;;;;7.11;88.94;99265.59;5061220;28;20060;-48
2022/11/22 03:57:32;;;;;;;15.95;2.63;;;;;;;7.11;88.86;99262.16;5059835;28;20059;-47
2022/11/22 03:59:58;;;;;;;12.68;2.58;;;;;;;7.09;89.15;99271.50;5065993;28;20162;-49
2022/11/22 04:02:23;;;;;;;15.27;1.95;;;;;;;7.15;88.69;99266.47;5062612;28;20037;-45
2022/11/22 04:04:48;;;;;;;14.82;2.47;;;;;;;7.09;88.48;99268.94;5060715;28;20498;-46
2022/11/22 04:07:14;;;;;;;13.38;2.80;;;;;;;7.04;88.85;99266.31;5066231;28;20429;-46
2022/11/22 04:09:39;;;;;;;16.75;2.55;;;;;;;7.06;88.80;99276.56;5064055;28;20040;-49
2022/11/22 04:12:04;;;;;;;15.77;2.50;;;;;;;7.04;88.35;99265.44;5067245;28;20473;-45
2022/11/22 04:17:39;;;;;;;14.98;3.17;;;;;;;7.00;88.41;99274.75;5066955;28;20086;-48
2022/11/22 04:21:32;;;;;;;13.85;2.35;;;;;;;6.99;88.13;99284.13;5066497;28;20048;-51
2022/11/22 04:22:54;;;;;;;14.85;2.53;;;;;;;7.04;88.53;99296.09;5065348;28;20064;-51
2022/11/22 04:25:19;;;;;;;15.68;2.63;;;;;;;6.99;88.23;99298.59;5066771;28;20562;-50
2022/11/22 04:27:44;;;;;;;17.92;3.17;;;;;;;6.93;88.21;99291.69;5065922;28;20040;-46
2022/11/22 04:30:10;;;;;;;15.95;2.58;;;;;;;6.89;87.83;99289.91;5065883;28;20032;-47
2022/11/22 04:32:44;;;;;;;14.35;2.60;;;;;;;6.91;87.84;99297.59;5067570;28;20077;-49
2022/11/22 04:35:12;;;;;;;11.63;2.40;;;;;;;6.87;87.92;99288.16;5065113;28;20032;-49
2022/11/22 04:37:37;;;;;;;14.50;2.70;;;;;;;6.88;87.64;99282.22;5064144;28;20048;-48
2022/11/22 04:40:03;;;;;;;13.88;2.47;;;;;;;6.86;87.50;99291.56;5062363;28;20059;-49
2022/11/22 04:45:12;;;;;;;16.90;2.53;;;;;;;6.82;87.35;99297.44;5058713;28;20047;-48
2022/11/22 04:53:06;;;;;;;13.68;2.13;;;;;;;6.74;87.26;99297.31;5062300;28;20052;-49
2022/11/22 04:55:31;;;;;;;13.85;2.28;;;;;;;6.78;87.00;99288.00;5066054;28;20033;-48
2022/11/22 04:57:56;;;;;;;12.32;2.60;;;;;;;6.77;87.15;99297.34;5064497;28;20036;-47
2022/11/22 05:00:22;;;;;;;13.98;2.03;;;;;;;6.70;87.20;99292.97;5068345;28;20028;-49
2022/11/22 05:02:47;;;;;;;14.55;2.83;;;;;;;6.68;87.39;99302.31;5066057;28;20035;-46
2022/11/22 05:05:12;;;;;;;12.75;3.00;;;;;;;6.69;87.14;99299.78;5065716;28;20568;-48
2022/11/22 05:07:38;;;;;;;13.15;2.63;;;;;;;6.64;86.85;99305.63;5064269;28;20414;-46
2022/11/22 05:10:03;;;;;;;12.82;2.25;;;;;;;6.63;86.96;99303.91;5063675;28;20048;-49
2022/11/22 05:12:29;;;;;;;14.43;2.28;;;;;;;6.66;87.00;99304.81;5064321;28;20043;-47
2022/11/22 05:14:54;;;;;;;12.98;2.45;;;;;;;6.63;86.98;99306.47;5066125;28;20116;-48
2022/11/22 05:17:19;;;;;;;13.35;2.30;;;;;;;6.62;87.32;99304.75;5065008;28;20036;-50
2022/11/22 05:19:45;;;;;;;12.13;3.60;;;;;;;6.56;86.72;99302.06;5064795;28;20043;-49
2022/11/22 05:22:10;;;;;;;10.52;2.10;;;;;;;6.54;86.79;99298.59;5063038;28;20035;-45
2022/11/22 05:24:35;;;;;;;11.77;2.10;;;;;;;6.53;86.79;99314.75;5060834;28;20037;-51
2022/11/22 05:27:01;;;;;;;16.90;2.30;;;;;;;6.52;87.06;99310.50;5060490;28;20025;-51
2022/11/22 05:29:26;;;;;;;9.05;2.45;;;;;;;6.50;86.81;99302.81;5061150;28;20419;-48
2022/11/22 05:31:51;;;;;;;13.93;2.45;;;;;;;6.47;86.95;99305.28;5062579;28;20030;-45
2022/11/22 05:34:17;;;;;;;9.32;1.92;;;;;;;6.50;86.85;99307.06;5061483;28;20040;-49
2022/11/22 05:36:42;;;;;;;12.52;2.15;;;;;;;6.43;86.90;99301.84;5063431;28;20043;-45
2022/11/22 05:39:07;;;;;;;12.85;1.92;;;;;;;6.43;86.77;99306.06;5060841;28;20036;-51
2022/11/22 05:41:33;;;;;;;12.93;1.85;;;;;;;6.44;86.71;99300.16;5062189;28;20036;-48
2022/11/22 05:43:59;;;;;;;8.13;1.77;;;;;;;6.47;86.44;99300.19;5060786;28;20036;-49
2022/11/22 05:46:29;;;;;;;13.55;2.10;;;;;;;6.44;86.84;99301.00;5062005;28;20695;-46
2022/11/22 05:48:56;;;;;;;13.25;2.65;;;;;;;6.40;86.69;99304.31;5056573;28;20058;-49
2022/11/22 05:51:25;;;;;;;13.65;2.08;;;;;;;6.47;86.65;99296.78;5056247;28;20116;-48
2022/11/22 05:53:50;;;;;;;8.55;1.85;;;;;;;6.40;86.47;99296.66;5061001;28;20021;-50
2022/11/22 05:56:22;;;;;;;11.75;1.95;;;;;;;6.43;86.73;99301.84;5058946;28;20393;-47
2022/11/22 05:58:48;;;;;;;11.68;2.15;;;;;;;6.36;86.31;99301.66;5061662;28;20047;-49
2022/11/22 06:01:19;;;;;;;11.70;2.17;;;;;;;6.35;86.19;99295.69;5059840;28;20036;-49
2022/11/22 06:03:44;;;;;;;8.63;1.77;;;;;;;6.38;86.22;99295.78;5058727;28;20937;-47
2022/11/22 06:06:10;;;;;;;10.18;1.90;;;;;;;6.38;86.11;99303.44;5058457;28;20041;-49
2022/11/22 06:08:39;;;;;;;10.00;1.90;;;;;;;6.32;86.24;99305.00;5065018;28;20052;-47
2022/11/22 06:11:25;;;;;;;6.95;1.98;;;;;;;6.40;86.80;99299.22;5058493;28;20056;-49
2022/11/22 06:13:56;;;;;;;13.57;1.70;;;;;;;6.32;86.54;99307.56;5062914;28;20726;-48
2022/11/22 06:16:22;;;;;;;11.43;1.75;;;;;;;6.30;86.12;99309.19;5059088;28;20547;-48
2022/11/22 06:18:48;;;;;;;8.73;2.03;;;;;;;6.26;86.19;99310.84;5063061;28;20040;-48
2022/11/22 06:21:16;;;;;;;15.40;2.33;;;;;;;6.30;86.20;99315.16;5063824;28;20044;-49
2022/11/22 06:23:42;;;;;;;12.07;2.20;;;;;;;6.29;86.03;99303.25;5060318;28;20148;-49
2022/11/22 06:26:10;;;;;;;10.70;2.03;;;;;;;6.32;85.86;99307.56;5061116;28;20509;-46
2022/11/22 06:28:37;;;;;;;8.00;2.00;;;;;;;6.32;85.79;99308.41;5061383;28;20032;-47
2022/11/22 06:31:05;;;;;;;11.55;1.90;;;;;;;6.27;85.91;99320.22;5060421;28;20619;-51
2022/11/22 06:33:31;;;;;;;11.05;1.95;;;;;;;6.24;85.81;99311.63;5063240;28;20393;-50
2022/11/22 06:36:05;;;;;;;13.25;2.42;;;;;;;6.24;86.43;99320.16;5062278;28;20020;-49
2022/11/22 06:38:31;;;;;;;13.70;2.00;;;;;;;6.16;85.98;99303.81;5058308;28;20480;-46
2022/11/22 06:41:16;;;;;;;10.07;2.45;;;;;;;6.27;86.70;99315.13;5060794;28;20103;-45
2022/11/22 06:43:44;;;;;;;9.02;2.83;;;;;;;6.17;86.25;99324.25;5058149;28;20033;-50
2022/11/22 06:46:10;;;;;;;8.80;2.85;;;;;;;6.19;86.18;99321.75;5057429;28;20107;-50
2022/11/22 06:48:37;;;;;;;9.15;2.03;;;;;;;6.18;86.28;99336.19;5059612;28;20036;-50
2022/11/22 06:51:09;;;;;;;7.57;2.10;;;;;;;6.27;86.52;99324.47;5059905;28;20554;-49
2022/11/22 06:53:35;;;;;;;13.18;2.60;;;;;;;6.20;87.05;99333.69;5060218;28;20107;-51
2022/11/22 06:56:03;;;;;;;11.70;1.95;;;;;;;6.24;86.92;99330.34;5060720;28;20033;-50
2022/11/22 06:58:28;;;;;;;12.05;2.10;;;;;;;6.22;87.17;99337.13;5059672;28;20039;-49
2022/11/22 07:01:04;;;;;;;12.75;2.25;;;;;;;6.24;87.28;99343.13;5062301;28;20033;-51
2022/11/22 07:03:30;;;;;;;11.52;2.13;;;;;;;6.21;87.54;99337.97;5059190;28;20808;-48
2022/11/22 07:05:56;;;;;;;8.98;1.88;;;;;;;6.21;87.51;99352.41;5057689;28;20130;-50
2022/11/22 07:08:22;;;;;;;11.70;2.17;;;;;;;6.19;87.53;99349.84;5063510;28;20032;-49
2022/11/22 07:10:47;;;;;;;14.48;2.00;;;;;;;6.24;87.73;99358.44;5063512;28;20075;-46
2022/11/22 07:13:13;;;;;;;10.45;2.22;;;;;;;6.27;87.49;99350.00;5062546;28;20111;-50
2022/11/22 07:15:38;;;;;;;9.48;1.83;;;;;;;6.26;87.08;99353.38;5063686;28;20041;-46
2022/11/22 07:18:03;;;;;;;10.73;2.08;;;;;;;6.26;87.28;99355.94;5066233;28;20425;-48
2022/11/22 07:20:29;;;;;;;12.50;2.58;;;;;;;6.27;87.52;99350.84;5063383;28;20037;-52
2022/11/22 07:22:54;;;;;;;8.10;1.75;;;;;;;6.23;87.41;99353.31;5065300;28;20039;-45
2022/11/22 07:25:20;;;;;;;9.07;1.73;;;;;;;6.26;87.76;99348.28;5064773;28;20032;-51
2022/11/22 07:27:45;;;;;;;12.38;2.10;;;;;;;6.28;87.69;99350.03;5065345;28;20400;-49
2022/11/22 07:30:11;;;;;;;9.35;2.33;;;;;;;6.30;87.46;99353.44;5062683;28;20046;-49
2022/11/22 07:32:36;;;;;;;13.70;2.35;;;;;;;6.32;87.39;99354.38;5079076;28;20029;-50
2022/11/22 07:35:01;;;;;;;9.02;1.92;;;;;;;6.28;87.51;99357.69;5061960;28;20043;-50
2022/11/22 07:37:29;;;;;;;11.13;2.35;;;;;;;6.28;87.64;99356.81;5067007;28;20020;-48
2022/11/22 07:39:55;;;;;;;12.38;2.90;;;;;;;6.26;87.36;99363.59;5064555;28;20089;-46
2022/11/22 07:42:20;;;;;;;10.48;2.30;;;;;;;6.26;87.38;99366.16;5062802;28;20036;-50
2022/11/22 07:44:45;;;;;;;12.93;2.10;;;;;;;6.28;87.35;99355.13;5063079;28;20423;-49
2022/11/22 07:47:11;;;;;;;7.57;2.05;;;;;;;6.29;87.69;99359.41;5063354;28;20434;-51
2022/11/22 07:49:38;;;;;;;15.20;2.40;;;;;;;6.30;87.22;99356.00;5063890;28;20040;-51
2022/11/22 07:52:03;;;;;;;11.25;2.10;;;;;;;6.32;87.10;99362.03;5060176;28;20059;-47
2022/11/22 07:54:28;;;;;;;10.00;1.75;;;;;;;6.30;87.32;99363.66;5063854;28;20032;-48
2022/11/22 07:56:54;;;;;;;11.40;2.10;;;;;;;6.31;87.48;99361.97;5064188;28;20116;-49
2022/11/22 07:59:19;;;;;;;10.25;2.05;;;;;;;6.28;87.81;99361.94;5066040;28;20032;-47
2022/11/22 08:01:44;;;;;;;10.05;2.22;;;;;;;6.37;87.55;99367.22;5066245;28;20087;-49
2022/11/22 08:04:10;;;;;;;9.35;2.05;;;;;;;6.37;86.99;99368.09;5064158;28;20051;-44
2022/11/22 08:06:35;;;;;;;10.95;1.88;;;;;;;6.41;86.96;99358.78;5065851;28;20044;-51
2022/11/22 08:09:00;;;;;;;7.95;1.92;;;;;;;6.40;87.10;99368.16;5068908;28;20396;-54
2022/11/22 08:11:26;;;;;;;14.32;2.28;;;;;;;6.39;86.97;99363.88;5065557;28;20398;-51
2022/11/22 08:13:51;;;;;;;12.88;2.22;;;;;;;6.42;87.34;99360.50;5065822;28;20077;-50
2022/11/22 08:16:17;;;;;;;9.40;1.90;;;;;;;6.41;87.49;99359.66;5064750;28;20040;-47
2022/11/22 08:18:47;;;;;;;11.38;2.25;;;;;;;6.46;86.65;99369.97;5065506;28;20035;-49
2022/11/22 08:21:13;;;;;;;8.70;1.85;;;;;;;6.43;86.44;99372.44;5065039;28;20029;-49
2022/11/22 08:23:40;;;;;;;10.07;1.98;;;;;;;6.44;86.75;99369.09;5065578;28;20033;-50
2022/11/22 08:26:08;;;;;;;12.73;2.35;;;;;;;6.46;87.29;99367.41;5067632;28;20081;-49
2022/11/22 08:28:34;;;;;;;8.27;1.70;;;;;;;6.47;87.17;99363.16;5067495;28;20028;-51
2022/11/22 08:31:11;;;;;;;10.95;2.13;;;;;;;6.55;87.51;99364.16;5063554;28;20119;-50
2022/11/22 08:33:37;;;;;;;10.20;1.60;;;;;;;6.54;87.26;99370.13;5064439;28;20029;-48
2022/11/22 08:36:03;;;;;;;6.90;1.77;;;;;;;6.52;87.54;99366.69;5062756;28;20529;-49
2022/11/22 08:38:28;;;;;;;9.35;1.70;;;;;;;6.58;87.32;99371.91;5060661;28;20047;-50
2022/11/22 08:40:54;;;;;;;9.65;1.80;;;;;;;6.60;86.96;99376.19;5060523;28;20036;-47
2022/11/22 08:43:19;;;;;;;7.93;1.98;;;;;;;6.57;86.79;99373.59;5061795;28;20036;-48
2022/11/22 08:45:47;;;;;;;11.23;2.40;;;;;;;6.60;86.68;99375.34;5065674;28;20086;-49
2022/11/22 08:48:12;;;;;;;9.48;1.80;;;;;;;6.57;87.04;99380.41;5061477;28;20457;-49
2022/11/22 08:50:38;;;;;;;11.15;2.13;;;;;;;6.60;87.02;99383.88;5064683;28;20101;-51
2022/11/22 08:53:03;;;;;;;10.13;1.90;;;;;;;6.62;86.95;99378.81;5064748;28;20035;-49
2022/11/22 08:55:29;;;;;;;6.88;1.60;;;;;;;6.63;87.41;99385.63;5058488;28;20089;-50
2022/11/22 08:57:58;;;;;;;13.73;1.75;;;;;;;6.68;87.01;99373.81;5064208;28;20381;-49
2022/11/22 09:00:23;;;;;;;13.85;2.00;;;;;;;6.66;87.22;99371.22;5064200;28;20029;-47
2022/11/22 09:02:49;;;;;;;10.02;1.83;;;;;;;6.69;87.32;99373.00;5060860;28;20503;-49
2022/11/22 09:05:14;;;;;;;9.25;1.80;;;;;;;6.72;86.62;99380.69;5064165;28;20234;-49
2022/11/22 09:07:39;;;;;;;12.15;2.05;;;;;;;6.73;86.76;99382.41;5065672;28;20025;-49
2022/11/22 09:10:06;;;;;;;5.35;1.80;;;;;;;6.73;86.44;99377.31;5065148;28;20492;-54
2022/11/22 09:12:32;;;;;;;8.30;1.77;;;;;;;6.74;86.76;99396.06;5064918;28;20036;-49
2022/11/22 09:14:58;;;;;;;7.38;1.77;;;;;;;6.72;87.07;99391.78;5061663;28;20483;-50
2022/11/22 09:17:23;;;;;;;7.75;1.67;;;;;;;6.76;87.27;99405.47;5057279;28;20109;-49
2022/11/22 09:19:49;;;;;;;9.13;1.58;;;;;;;6.77;86.69;99402.09;5057161;28;20025;-48
2022/11/22 09:22:14;;;;;;;7.20;1.70;;;;;;;6.80;86.55;99406.41;5053856;28;20416;-49
2022/11/22 09:24:40;;;;;;;9.57;2.38;;;;;;;6.78;86.99;99395.28;5058917;28;20033;-49
2022/11/22 09:27:05;;;;;;;9.25;1.88;;;;;;;6.77;87.24;99396.97;5059209;28;21133;-49
2022/11/22 09:29:31;;;;;;;10.88;1.60;;;;;;;6.82;87.13;99397.06;5057943;28;20086;-47
2022/11/22 09:31:56;;;;;;;11.82;1.70;;;;;;;6.84;87.23;99400.50;5058506;28;20036;-49
2022/11/22 09:34:21;;;;;;;10.85;2.13;;;;;;;6.85;87.62;99397.97;5057237;28;20028;-49
2022/11/22 09:36:47;;;;;;;6.80;1.83;;;;;;;6.88;87.76;99395.50;5061445;28;20149;-50
2022/11/22 09:39:12;;;;;;;6.95;1.80;;;;;;;6.92;87.51;99402.41;5058145;28;20076;-47
2022/11/22 09:42:09;;;;;;;6.90;1.65;;;;;;;6.94;87.65;99393.06;5060004;28;20238;-46
2022/11/22 09:44:59;;;;;;;9.75;2.05;;;;;;;7.02;87.45;99398.31;5060517;28;20408;-47
2022/11/22 09:47:43;;;;;;;9.88;1.63;;;;;;;6.99;87.11;99400.81;5058467;28;20055;-49
2022/11/22 09:50:23;;;;;;;10.40;1.52;;;;;;;7.02;87.36;99397.44;5056550;28;20078;-48
2022/11/22 09:52:56;;;;;;;9.95;1.90;;;;;;;7.03;86.81;99397.47;5061078;28;20444;-51
2022/11/22 09:55:28;;;;;;;6.10;1.67;;;;;;;6.99;87.01;99390.59;5056377;28;20405;-50
2022/11/22 09:58:24;;;;;;;6.85;1.25;;;;;;;7.05;87.20;99389.84;5057028;28;20020;-50
2022/11/22 10:00:54;;;;;;;7.85;1.42;;;;;;;7.03;86.60;99397.47;5059098;28;20029;-47
2022/11/22 10:03:25;;;;;;;7.15;1.73;;;;;;;7.07;87.02;99406.06;5058518;28;20044;-49
2022/11/22 10:06:07;;;;;;;4.75;1.23;;;;;;;7.11;87.06;99410.41;5056384;28;20040;-48
2022/11/22 10:08:48;;;;;;;7.35;1.73;;;;;;;7.13;87.25;99413.84;5059284;28;20051;-46
2022/11/22 10:11:33;;;;;;;9.27;1.70;;;;;;;7.16;87.09;99408.78;5056637;28;20057;-48
2022/11/22 10:14:02;;;;;;;7.20;1.60;;;;;;;7.14;86.56;99410.47;5055791;28;20393;-46
2022/11/22 10:16:42;;;;;;;4.57;1.45;;;;;;;7.19;87.09;99409.72;5057456;28;20489;-49
2022/11/22 10:19:15;;;;;;;7.68;1.40;;;;;;;7.19;86.73;99398.63;5059929;28;20052;-47
2022/11/22 10:21:42;;;;;;;6.43;1.30;;;;;;;7.19;86.08;99408.84;5061883;28;20039;-50
2022/11/22 10:24:14;;;;;;;7.07;1.20;;;;;;;7.23;86.21;99400.41;5063225;28;20039;-49
2022/11/22 10:26:40;;;;;;;3.70;1.40;;;;;;;7.22;86.23;99394.44;5061706;28;20028;-47
2022/11/22 10:29:37;;;;;;;5.90;1.30;;;;;;;7.28;86.02;99395.38;5059253;28;20024;-47
2022/11/22 10:32:23;;;;;;;6.07;1.20;;;;;;;7.32;86.02;99394.59;5060976;28;20099;-50
2022/11/22 10:34:54;;;;;;;7.32;1.30;;;;;;;7.27;85.85;99389.38;5061421;28;20051;-49
2022/11/22 10:37:33;;;;;;;5.38;1.38;;;;;;;7.31;86.32;99392.88;5059896;28;20697;-50
2022/11/22 10:40:24;;;;;;;5.63;1.23;;;;;;;7.29;86.84;99387.75;5058039;28;20035;-48
2022/11/22 10:43:13;;;;;;;5.38;1.30;;;;;;;7.36;87.44;99383.59;5061546;28;20496;-47
2022/11/22 10:45:45;;;;;;;5.65;1.27;;;;;;;7.32;87.01;99384.38;5058767;28;20033;-49
2022/11/22 10:48:38;;;;;;;8.68;1.60;;;;;;;7.37;87.49;99382.75;5060024;28;20123;-50
2022/11/22 10:51:13;;;;;;;8.38;1.70;;;;;;;7.33;87.33;99380.97;5061022;28;20810;-49
2022/11/22 10:54:02;;;;;;;4.68;1.30;;;;;;;7.35;87.34;99381.88;5055454;28;20082;-47
2022/11/22 10:56:27;;;;;;;7.22;1.27;;;;;;;7.34;87.08;99383.56;5059806;28;20055;-48
2022/11/22 10:58:52;;;;;;;5.72;1.38;;;;;;;7.34;87.10;99382.69;5061037;28;20056;-48
2022/11/22 11:01:36;;;;;;;4.78;1.40;;;;;;;7.37;87.51;99373.38;5058962;28;20094;-47
2022/11/22 11:04:02;;;;;;;4.97;1.30;;;;;;;7.34;86.77;99375.91;5062893;28;20032;-55
2022/11/22 11:06:38;;;;;;;6.18;1.25;;;;;;;7.39;87.25;99369.16;5064790;28;20388;-48
2022/11/22 11:09:36;;;;;;;7.40;1.42;;;;;;;7.43;86.94;99363.25;5061684;28;20020;-50
2022/11/22 11:12:09;;;;;;;6.50;1.77;;;;;;;7.42;85.92;99376.03;5044994;28;20128;-49
2022/11/22 11:14:39;;;;;;;4.53;1.10;;;;;;;7.43;86.31;99367.50;5058207;28;20040;-49
2022/11/22 11:17:05;;;;;;;2.90;0.98;;;;;;;7.46;85.85;99357.31;5060407;28;20095;-52
2022/11/22 11:19:37;;;;;;;5.35;1.30;;;;;;;7.48;86.00;99353.97;5058419;28;20039;-49
2022/11/22 11:22:05;;;;;;;3.63;1.30;;;;;;;7.51;85.57;99348.03;5054457;28;20446;-49
2022/11/22 11:24:31;;;;;;;3.97;1.00;;;;;;;7.50;86.14;99344.63;5061351;28;20051;-54
2022/11/22 11:26:59;;;;;;;4.50;1.17;;;;;;;7.56;85.52;99338.72;5058956;28;20028;-47
2022/11/22 11:29:32;;;;;;;4.68;1.17;;;;;;;7.57;86.06;99339.59;5061453;28;20138;-49
2022/11/22 11:32:18;;;;;;;2.95;1.25;;;;;;;7.59;86.15;99343.91;5059053;28;20059;-45
2022/11/22 11:34:55;;;;;;;2.95;0.90;;;;;;;7.62;85.96;99337.97;5059787;28;20136;-47
2022/11/22 11:37:25;;;;;;;5.15;1.20;;;;;;;7.59;86.42;99332.81;5059043;28;20078;-51
2022/11/22 11:39:50;;;;;;;4.05;0.93;;;;;;;7.64;85.47;99328.63;5058063;28;20032;-55
2022/11/22 11:42:34;;;;;;;3.83;1.00;;;;;;;7.66;85.63;99339.75;5057638;28;20087;-48
2022/11/22 11:45:23;;;;;;;2.38;0.82;;;;;;;7.71;85.24;99333.88;5058666;28;20036;-49
2022/11/22 11:47:48;;;;;;;3.60;1.00;;;;;;;7.66;84.75;99342.31;5057795;28;20485;-49
2022/11/22 11:50:21;;;;;;;3.53;0.80;;;;;;;7.71;85.19;99348.38;5061386;28;20302;-47
2022/11/22 11:52:55;;;;;;;4.25;1.08;;;;;;;7.73;84.75;99341.56;5064838;28;20473;-51